Terminal Aerodrome Forecast
Issued by NWS Blacksburg, VA

Home | Current Version | Previous Version | Text Only | Print | Product List | Glossary On
Versions: 1 2 3 4 5 6 7 8 9 10 11 12 13 14 15 16 17 18 19 20 21 22 23 24 25 26 27 28 29 30
000
FTUS41 KRNK 022327
TAFLYH
TAF
KLYH 022327Z 0300/0324 35006KT P6SM VCSH SCT060 BKN120
     FM030200 33003KT P6SM FEW060 BKN250
      TEMPO 0309/0312 5SM BR
     FM031700 30004KT P6SM SCT040 BKN080=

USA.gov is the U.S. government's official web portal to all federal, state and local government web resources and services.